sensor_id;sensor_type;location;lat;lon;timestamp;pressure;altitude;pressure_sealevel;temperature;humidity
84878;BME280;75140;47.754;8.840;2024-03-25T00:01:55;96087.59;;;3.94;89.49
84878;BME280;75140;47.754;8.840;2024-03-25T00:04:20;96085.97;;;3.93;90.34
84878;BME280;75140;47.754;8.840;2024-03-25T00:06:48;96103.88;;;3.97;89.70
84878;BME280;75140;47.754;8.840;2024-03-25T00:09:14;96093.03;;;4.00;89.89
84878;BME280;75140;47.754;8.840;2024-03-25T00:11:43;96092.56;;;3.97;90.21
84878;BME280;75140;47.754;8.840;2024-03-25T00:14:08;96090.38;;;3.92;90.82
84878;BME280;75140;47.754;8.840;2024-03-25T00:16:34;96101.06;;;3.99;90.89
84878;BME280;75140;47.754;8.840;2024-03-25T00:19:00;96093.19;;;3.99;89.80
84878;BME280;75140;47.754;8.840;2024-03-25T00:21:25;96101.59;;;4.02;90.34
84878;BME280;75140;47.754;8.840;2024-03-25T00:23:51;96094.38;;;4.04;89.89
84878;BME280;75140;47.754;8.840;2024-03-25T00:26:16;96106.38;;;4.07;90.56
84878;BME280;75140;47.754;8.840;2024-03-25T00:28:42;96091.25;;;4.09;89.87
84878;BME280;75140;47.754;8.840;2024-03-25T00:31:07;96099.69;;;4.20;89.36
84878;BME280;75140;47.754;8.840;2024-03-25T00:33:33;96087.69;;;4.26;89.59
84878;BME280;75140;47.754;8.840;2024-03-25T00:35:59;96087.53;;;4.19;89.36
84878;BME280;75140;47.754;8.840;2024-03-25T00:38:24;96080.31;;;4.21;89.00
84878;BME280;75140;47.754;8.840;2024-03-25T00:40:50;96080.97;;;4.23;89.23
84878;BME280;75140;47.754;8.840;2024-03-25T00:43:15;96077.69;;;4.29;88.36
84878;BME280;75140;47.754;8.840;2024-03-25T00:45:41;96079.47;;;4.21;89.17
84878;BME280;75140;47.754;8.840;2024-03-25T00:48:07;96079.81;;;4.26;88.23
84878;BME280;75140;47.754;8.840;2024-03-25T00:50:32;96074.38;;;4.19;89.74
84878;BME280;75140;47.754;8.840;2024-03-25T00:52:58;96067.84;;;4.15;89.07
84878;BME280;75140;47.754;8.840;2024-03-25T00:55:23;96071.44;;;4.14;89.51
84878;BME280;75140;47.754;8.840;2024-03-25T00:57:50;96068.63;;;4.16;89.14
84878;BME280;75140;47.754;8.840;2024-03-25T01:00:15;96066.66;;;4.10;89.66
84878;BME280;75140;47.754;8.840;2024-03-25T01:02:41;96058.47;;;4.13;89.84
84878;BME280;75140;47.754;8.840;2024-03-25T01:05:07;96065.34;;;4.14;89.80
84878;BME280;75140;47.754;8.840;2024-03-25T01:07:32;96055.00;;;4.12;89.38
84878;BME280;75140;47.754;8.840;2024-03-25T01:09:58;96058.47;;;4.13;88.71
84878;BME280;75140;47.754;8.840;2024-03-25T01:12:24;96057.00;;;4.10;88.97
84878;BME280;75140;47.754;8.840;2024-03-25T01:14:49;96050.72;;;4.03;89.32
84878;BME280;75140;47.754;8.840;2024-03-25T01:17:15;96047.09;;;3.96;89.83
84878;BME280;75140;47.754;8.840;2024-03-25T01:19:40;96045.44;;;3.95;90.26
84878;BME280;75140;47.754;8.840;2024-03-25T01:22:05;96043.78;;;3.86;89.92
84878;BME280;75140;47.754;8.840;2024-03-25T01:24:31;96046.88;;;3.82;90.74
84878;BME280;75140;47.754;8.840;2024-03-25T01:26:56;96023.41;;;3.80;90.86
84878;BME280;75140;47.754;8.840;2024-03-25T01:29:21;96032.13;;;3.81;90.50
84878;BME280;75140;47.754;8.840;2024-03-25T01:31:47;96026.34;;;3.77;90.52
84878;BME280;75140;47.754;8.840;2024-03-25T01:34:12;96024.56;;;3.78;90.78
84878;BME280;75140;47.754;8.840;2024-03-25T01:36:38;96022.56;;;3.72;91.12
84878;BME280;75140;47.754;8.840;2024-03-25T01:39:04;96025.00;;;3.65;91.60
84878;BME280;75140;47.754;8.840;2024-03-25T01:41:30;96024.16;;;3.64;91.77
84878;BME280;75140;47.754;8.840;2024-03-25T01:43:55;96012.53;;;3.59;91.33
84878;BME280;75140;47.754;8.840;2024-03-25T01:46:21;96025.31;;;3.62;91.55
84878;BME280;75140;47.754;8.840;2024-03-25T01:48:47;96025.94;;;3.56;91.66
84878;BME280;75140;47.754;8.840;2024-03-25T01:51:14;96029.22;;;3.58;91.25
84878;BME280;75140;47.754;8.840;2024-03-25T01:53:42;96033.69;;;3.57;91.50
84878;BME280;75140;47.754;8.840;2024-03-25T01:56:08;96027.75;;;3.55;91.38
84878;BME280;75140;47.754;8.840;2024-03-25T01:58:34;96020.34;;;3.51;91.59
84878;BME280;75140;47.754;8.840;2024-03-25T02:01:00;96016.41;;;3.47;91.26
84878;BME280;75140;47.754;8.840;2024-03-25T02:03:29;96019.38;;;3.52;91.73
84878;BME280;75140;47.754;8.840;2024-03-25T02:06:02;96015.75;;;3.53;91.70
84878;BME280;75140;47.754;8.840;2024-03-25T02:08:29;96015.56;;;3.46;91.21
84878;BME280;75140;47.754;8.840;2024-03-25T02:10:57;96016.41;;;3.47;91.69
84878;BME280;75140;47.754;8.840;2024-03-25T02:13:24;96012.59;;;3.41;91.69
84878;BME280;75140;47.754;8.840;2024-03-25T02:15:49;96021.25;;;3.34;92.09
84878;BME280;75140;47.754;8.840;2024-03-25T02:18:17;96016.16;;;3.32;92.02
84878;BME280;75140;47.754;8.840;2024-03-25T02:20:43;96011.72;;;3.25;92.54
84878;BME280;75140;47.754;8.840;2024-03-25T02:23:08;96018.78;;;3.32;93.37
84878;BME280;75140;47.754;8.840;2024-03-25T02:25:37;96019.63;;;3.33;92.57
84878;BME280;75140;47.754;8.840;2024-03-25T02:28:03;96025.53;;;3.35;92.77
84878;BME280;75140;47.754;8.840;2024-03-25T02:30:29;96032.44;;;3.44;92.57
84878;BME280;75140;47.754;8.840;2024-03-25T02:32:54;96030.03;;;3.50;92.35
84878;BME280;75140;47.754;8.840;2024-03-25T02:35:21;96029.03;;;3.51;91.33
84878;BME280;75140;47.754;8.840;2024-03-25T02:37:47;96024.31;;;3.55;90.96
84878;BME280;75140;47.754;8.840;2024-03-25T02:40:14;96021.34;;;3.50;91.80
84878;BME280;75140;47.754;8.840;2024-03-25T02:42:41;96024.47;;;3.53;92.17
84878;BME280;75140;47.754;8.840;2024-03-25T02:45:07;96018.72;;;3.50;92.79
84878;BME280;75140;47.754;8.840;2024-03-25T02:47:33;96019.56;;;3.58;92.29
84878;BME280;75140;47.754;8.840;2024-03-25T02:49:58;96016.63;;;3.61;91.35
84878;BME280;75140;47.754;8.840;2024-03-25T02:52:24;96006.31;;;3.68;91.69
84878;BME280;75140;47.754;8.840;2024-03-25T02:54:49;96009.75;;;3.68;91.47
84878;BME280;75140;47.754;8.840;2024-03-25T02:57:14;96012.72;;;3.65;91.80
84878;BME280;75140;47.754;8.840;2024-03-25T02:59:40;95998.06;;;3.55;90.95
84878;BME280;75140;47.754;8.840;2024-03-25T03:02:05;96006.25;;;3.52;91.20
84878;BME280;75140;47.754;8.840;2024-03-25T03:04:30;96001.63;;;3.46;91.88
84878;BME280;75140;47.754;8.840;2024-03-25T03:06:56;96003.91;;;3.41;91.75
84878;BME280;75140;47.754;8.840;2024-03-25T03:09:22;95992.09;;;3.37;92.01
84878;BME280;75140;47.754;8.840;2024-03-25T03:11:47;96009.50;;;3.46;92.13
84878;BME280;75140;47.754;8.840;2024-03-25T03:14:13;96018.63;;;3.34;92.08
84878;BME280;75140;47.754;8.840;2024-03-25T03:16:38;96009.78;;;3.35;92.98
84878;BME280;75140;47.754;8.840;2024-03-25T03:19:06;96006.34;;;3.34;92.80
84878;BME280;75140;47.754;8.840;2024-03-25T03:21:31;96010.34;;;3.54;92.34
84878;BME280;75140;47.754;8.840;2024-03-25T03:23:57;96014.13;;;3.52;92.25
84878;BME280;75140;47.754;8.840;2024-03-25T03:26:23;96011.84;;;3.57;92.44
84878;BME280;75140;47.754;8.840;2024-03-25T03:28:54;96015.44;;;3.56;92.17
84878;BME280;75140;47.754;8.840;2024-03-25T03:31:20;96021.34;;;3.50;92.42
84878;BME280;75140;47.754;8.840;2024-03-25T03:33:49;96007.91;;;3.53;91.70
84878;BME280;75140;47.754;8.840;2024-03-25T03:36:21;96012.38;;;3.60;91.92
84878;BME280;75140;47.754;8.840;2024-03-25T03:38:47;96001.03;;;3.52;92.02
84878;BME280;75140;47.754;8.840;2024-03-25T03:41:12;96013.84;;;3.63;90.94
84878;BME280;75140;47.754;8.840;2024-03-25T03:43:38;96007.81;;;3.71;91.23
84878;BME280;75140;47.754;8.840;2024-03-25T03:46:03;96006.66;;;3.73;91.00
84878;BME280;75140;47.754;8.840;2024-03-25T03:48:30;95998.25;;;3.61;91.31
84878;BME280;75140;47.754;8.840;2024-03-25T03:50:55;95996.44;;;3.54;92.16
84878;BME280;75140;47.754;8.840;2024-03-25T03:53:21;96003.84;;;3.66;91.50
84878;BME280;75140;47.754;8.840;2024-03-25T03:55:56;96008.59;;;3.63;91.76
84878;BME280;75140;47.754;8.840;2024-03-25T03:58:23;95993.50;;;3.65;91.68
84878;BME280;75140;47.754;8.840;2024-03-25T04:00:48;95994.50;;;3.64;91.88
84878;BME280;75140;47.754;8.840;2024-03-25T04:03:14;96000.09;;;3.69;91.92
84878;BME280;75140;47.754;8.840;2024-03-25T04:05:45;95996.81;;;3.75;91.73
84878;BME280;75140;47.754;8.840;2024-03-25T04:08:11;96003.50;;;3.61;91.71
84878;BME280;75140;47.754;8.840;2024-03-25T04:10:36;95992.88;;;3.71;92.04
84878;BME280;75140;47.754;8.840;2024-03-25T04:13:03;96000.75;;;3.71;91.71
84878;BME280;75140;47.754;8.840;2024-03-25T04:15:29;96010.44;;;3.79;91.42
84878;BME280;75140;47.754;8.840;2024-03-25T04:17:57;96000.63;;;3.81;92.01
84878;BME280;75140;47.754;8.840;2024-03-25T04:20:23;96002.38;;;3.64;91.39
84878;BME280;75140;47.754;8.840;2024-03-25T04:22:49;96000.44;;;3.82;90.34
84878;BME280;75140;47.754;8.840;2024-03-25T04:25:14;96001.63;;;3.88;91.36
84878;BME280;75140;47.754;8.840;2024-03-25T04:27:40;95996.53;;;3.86;90.79
84878;BME280;75140;47.754;8.840;2024-03-25T04:30:07;95993.91;;;3.86;90.24
84878;BME280;75140;47.754;8.840;2024-03-25T04:32:33;95997.56;;;4.01;90.25
84878;BME280;75140;47.754;8.840;2024-03-25T04:34:59;95989.97;;;3.90;90.39
84878;BME280;75140;47.754;8.840;2024-03-25T04:37:24;95989.63;;;3.85;89.90
84878;BME280;75140;47.754;8.840;2024-03-25T04:39:49;95992.63;;;3.98;89.11
84878;BME280;75140;47.754;8.840;2024-03-25T04:42:15;95987.19;;;3.92;91.00
84878;BME280;75140;47.754;8.840;2024-03-25T04:44:40;95982.41;;;3.87;89.75
84878;BME280;75140;47.754;8.840;2024-03-25T04:47:06;95988.66;;;3.86;90.26
84878;BME280;75140;47.754;8.840;2024-03-25T04:49:31;95981.75;;;3.77;90.72
84878;BME280;75140;47.754;8.840;2024-03-25T04:51:56;95986.97;;;3.69;92.31
84878;BME280;75140;47.754;8.840;2024-03-25T04:54:22;95988.78;;;3.77;91.98
84878;BME280;75140;47.754;8.840;2024-03-25T04:56:47;95988.16;;;3.83;90.49
84878;BME280;75140;47.754;8.840;2024-03-25T04:59:13;95993.41;;;3.83;91.27
84878;BME280;75140;47.754;8.840;2024-03-25T05:01:38;95993.25;;;3.92;90.57
84878;BME280;75140;47.754;8.840;2024-03-25T05:04:03;95999.50;;;3.99;90.21
84878;BME280;75140;47.754;8.840;2024-03-25T05:06:29;95974.41;;;4.05;89.57
84878;BME280;75140;47.754;8.840;2024-03-25T05:08:54;95987.06;;;4.09;90.30
84878;BME280;75140;47.754;8.840;2024-03-25T05:11:19;95991.28;;;3.94;90.96
84878;BME280;75140;47.754;8.840;2024-03-25T05:13:45;95981.75;;;3.85;91.95
84878;BME280;75140;47.754;8.840;2024-03-25T05:16:10;95984.19;;;3.79;92.27
84878;BME280;75140;47.754;8.840;2024-03-25T05:18:36;95983.03;;;3.73;91.77
84878;BME280;75140;47.754;8.840;2024-03-25T05:21:01;95987.03;;;3.93;91.65
84878;BME280;75140;47.754;8.840;2024-03-25T05:23:27;95990.97;;;3.97;90.83
84878;BME280;75140;47.754;8.840;2024-03-25T05:25:52;95986.88;;;4.03;90.59
84878;BME280;75140;47.754;8.840;2024-03-25T05:28:17;95984.09;;;3.96;90.07
84878;BME280;75140;47.754;8.840;2024-03-25T05:30:43;95985.22;;;3.94;89.76
84878;BME280;75140;47.754;8.840;2024-03-25T05:33:08;95989.97;;;3.90;88.92
84878;BME280;75140;47.754;8.840;2024-03-25T05:35:34;95997.56;;;4.01;88.16
84878;BME280;75140;47.754;8.840;2024-03-25T05:38:02;95987.66;;;3.87;88.25
84878;BME280;75140;47.754;8.840;2024-03-25T05:40:28;95990.94;;;3.81;87.44
84878;BME280;75140;47.754;8.840;2024-03-25T05:42:54;95992.75;;;3.81;88.26
84878;BME280;75140;47.754;8.840;2024-03-25T05:45:19;95974.03;;;3.76;88.36
84878;BME280;75140;47.754;8.840;2024-03-25T05:47:44;95978.94;;;3.79;87.69
84878;BME280;75140;47.754;8.840;2024-03-25T05:50:10;95982.25;;;3.81;87.29
84878;BME280;75140;47.754;8.840;2024-03-25T05:52:36;95984.75;;;3.98;87.55
84878;BME280;75140;47.754;8.840;2024-03-25T05:55:02;95987.34;;;3.82;88.73
84878;BME280;75140;47.754;8.840;2024-03-25T05:57:27;95986.22;;;3.93;87.83
84878;BME280;75140;47.754;8.840;2024-03-25T05:59:52;95984.09;;;3.96;88.50
84878;BME280;75140;47.754;8.840;2024-03-25T06:02:18;95985.38;;;3.92;86.82
84878;BME280;75140;47.754;8.840;2024-03-25T06:04:43;95985.06;;;3.95;87.83
84878;BME280;75140;47.754;8.840;2024-03-25T06:07:08;95985.25;;;4.02;87.72
84878;BME280;75140;47.754;8.840;2024-03-25T06:09:34;95984.44;;;4.01;87.90
84878;BME280;75140;47.754;8.840;2024-03-25T06:11:59;95982.59;;;3.94;87.22
84878;BME280;75140;47.754;8.840;2024-03-25T06:14:24;95977.84;;;4.05;87.42
84878;BME280;75140;47.754;8.840;2024-03-25T06:16:50;95974.59;;;4.11;86.89
84878;BME280;75140;47.754;8.840;2024-03-25T06:19:15;95971.31;;;4.25;87.44
84878;BME280;75140;47.754;8.840;2024-03-25T06:21:41;95962.75;;;4.07;86.78
84878;BME280;75140;47.754;8.840;2024-03-25T06:24:07;95972.47;;;4.07;87.29
84878;BME280;75140;47.754;8.840;2024-03-25T06:26:33;95985.09;;;4.11;86.41
84878;BME280;75140;47.754;8.840;2024-03-25T06:28:59;95978.84;;;3.96;86.32
84878;BME280;75140;47.754;8.840;2024-03-25T06:31:24;95972.56;;;3.81;87.24
84878;BME280;75140;47.754;8.840;2024-03-25T06:34:09;95983.94;;;3.98;88.15
84878;BME280;75140;47.754;8.840;2024-03-25T06:36:42;95973.44;;;4.14;87.39
84878;BME280;75140;47.754;8.840;2024-03-25T06:39:09;95985.44;;;4.08;87.08
84878;BME280;75140;47.754;8.840;2024-03-25T06:41:34;95982.47;;;4.03;87.46
84878;BME280;75140;47.754;8.840;2024-03-25T06:44:00;95981.31;;;4.14;86.39
84878;BME280;75140;47.754;8.840;2024-03-25T06:46:25;95982.00;;;4.32;86.71
84878;BME280;75140;47.754;8.840;2024-03-25T06:48:50;95976.22;;;4.12;86.94
84878;BME280;75140;47.754;8.840;2024-03-25T06:51:17;95969.38;;;4.27;86.35
84878;BME280;75140;47.754;8.840;2024-03-25T06:53:43;95970.66;;;4.31;86.58
84878;BME280;75140;47.754;8.840;2024-03-25T06:56:09;95962.97;;;4.46;86.06
84878;BME280;75140;47.754;8.840;2024-03-25T06:58:34;95960.16;;;4.47;85.81
84878;BME280;75140;47.754;8.840;2024-03-25T07:01:07;95963.78;;;4.54;84.71
84878;BME280;75140;47.754;8.840;2024-03-25T07:03:33;95958.84;;;4.67;85.17
84878;BME280;75140;47.754;8.840;2024-03-25T07:05:59;95946.00;;;4.80;85.13
84878;BME280;75140;47.754;8.840;2024-03-25T07:08:26;95949.06;;;4.92;84.44
84878;BME280;75140;47.754;8.840;2024-03-25T07:10:52;95943.38;;;4.88;84.09
84878;BME280;75140;47.754;8.840;2024-03-25T07:13:17;95946.63;;;4.90;84.03
84878;BME280;75140;47.754;8.840;2024-03-25T07:15:43;95940.56;;;4.90;83.71
84878;BME280;75140;47.754;8.840;2024-03-25T07:18:09;95932.84;;;4.88;84.13
84878;BME280;75140;47.754;8.840;2024-03-25T07:20:42;95930.16;;;5.05;84.19
84878;BME280;75140;47.754;8.840;2024-03-25T07:23:08;95926.22;;;5.09;83.87
84878;BME280;75140;47.754;8.840;2024-03-25T07:25:33;95929.00;;;4.99;83.89
84878;BME280;75140;47.754;8.840;2024-03-25T07:27:59;95935.06;;;5.08;83.14
84878;BME280;75140;47.754;8.840;2024-03-25T07:30:25;95934.59;;;5.12;83.28
84878;BME280;75140;47.754;8.840;2024-03-25T07:32:56;95931.38;;;5.33;82.89
84878;BME280;75140;47.754;8.840;2024-03-25T07:35:22;95928.91;;;5.31;81.54
84878;BME280;75140;47.754;8.840;2024-03-25T07:37:48;95936.13;;;5.37;81.36
84878;BME280;75140;47.754;8.840;2024-03-25T07:40:20;95932.78;;;5.05;81.90
84878;BME280;75140;47.754;8.840;2024-03-25T07:42:46;95933.59;;;5.13;82.10
84878;BME280;75140;47.754;8.840;2024-03-25T07:45:12;95920.50;;;5.36;81.95
84878;BME280;75140;47.754;8.840;2024-03-25T07:47:38;95927.38;;;5.45;80.94
84878;BME280;75140;47.754;8.840;2024-03-25T07:50:03;95921.91;;;5.16;81.91
84878;BME280;75140;47.754;8.840;2024-03-25T07:52:31;95929.72;;;5.32;82.36
84878;BME280;75140;47.754;8.840;2024-03-25T07:54:56;95920.53;;;5.66;81.14
84878;BME280;75140;47.754;8.840;2024-03-25T07:57:22;95910.06;;;5.81;80.10
84878;BME280;75140;47.754;8.840;2024-03-25T07:59:47;95899.22;;;5.84;79.92
84878;BME280;75140;47.754;8.840;2024-03-25T08:02:13;95904.44;;;5.92;78.63
84878;BME280;75140;47.754;8.840;2024-03-25T08:04:39;95897.19;;;5.94;78.06
84878;BME280;75140;47.754;8.840;2024-03-25T08:07:05;95901.19;;;5.82;78.91
84878;BME280;75140;47.754;8.840;2024-03-25T08:09:30;95903.69;;;6.06;79.05
84878;BME280;75140;47.754;8.840;2024-03-25T08:11:56;95909.28;;;6.03;79.65
84878;BME280;75140;47.754;8.840;2024-03-25T08:14:21;95909.41;;;5.87;78.76
84878;BME280;75140;47.754;8.840;2024-03-25T08:16:47;95895.31;;;5.72;78.73
84878;BME280;75140;47.754;8.840;2024-03-25T08:19:12;95896.44;;;5.85;78.37
84878;BME280;75140;47.754;8.840;2024-03-25T08:21:38;95896.59;;;5.84;78.96
84878;BME280;75140;47.754;8.840;2024-03-25T08:24:03;95892.31;;;6.05;78.24
84878;BME280;75140;47.754;8.840;2024-03-25T08:26:29;95891.13;;;6.08;77.51
84878;BME280;75140;47.754;8.840;2024-03-25T08:28:54;95889.81;;;5.81;76.78
84878;BME280;75140;47.754;8.840;2024-03-25T08:31:20;95891.69;;;5.73;77.17
84878;BME280;75140;47.754;8.840;2024-03-25T08:33:45;95882.53;;;5.91;76.71
84878;BME280;75140;47.754;8.840;2024-03-25T08:36:10;95882.28;;;6.01;76.40
84878;BME280;75140;47.754;8.840;2024-03-25T08:38:36;95876.63;;;6.12;76.33
84878;BME280;75140;47.754;8.840;2024-03-25T08:41:01;95881.31;;;6.02;77.44
84878;BME280;75140;47.754;8.840;2024-03-25T08:43:27;95870.66;;;5.95;77.21
84878;BME280;75140;47.754;8.840;2024-03-25T08:45:52;95855.44;;;6.43;75.87
84878;BME280;75140;47.754;8.840;2024-03-25T08:48:17;95865.06;;;6.36;75.61
84878;BME280;75140;47.754;8.840;2024-03-25T08:50:43;95864.03;;;6.22;75.02
84878;BME280;75140;47.754;8.840;2024-03-25T08:53:08;95860.41;;;6.23;75.96
84878;BME280;75140;47.754;8.840;2024-03-25T08:55:33;95865.97;;;6.28;76.35
84878;BME280;75140;47.754;8.840;2024-03-25T08:57:59;95856.28;;;6.58;74.73
84878;BME280;75140;47.754;8.840;2024-03-25T09:00:25;95861.47;;;6.80;73.71
84878;BME280;75140;47.754;8.840;2024-03-25T09:02:51;95856.75;;;6.90;73.44
84878;BME280;75140;47.754;8.840;2024-03-25T09:05:16;95853.09;;;6.91;73.36
84878;BME280;75140;47.754;8.840;2024-03-25T09:07:49;95844.66;;;6.96;71.85
84878;BME280;75140;47.754;8.840;2024-03-25T09:10:16;95847.72;;;7.14;72.60
84878;BME280;75140;47.754;8.840;2024-03-25T09:13:00;95847.75;;;7.50;70.11
84878;BME280;75140;47.754;8.840;2024-03-25T09:15:26;95842.31;;;7.37;70.42
84878;BME280;75140;47.754;8.840;2024-03-25T09:17:51;95837.19;;;7.50;71.14
84878;BME280;75140;47.754;8.840;2024-03-25T09:20:16;95826.66;;;7.92;70.45
84878;BME280;75140;47.754;8.840;2024-03-25T09:22:43;95832.47;;;7.66;68.75
84878;BME280;75140;47.754;8.840;2024-03-25T09:25:09;95829.59;;;8.45;67.58
84878;BME280;75140;47.754;8.840;2024-03-25T09:27:34;95811.75;;;8.54;66.77
84878;BME280;75140;47.754;8.840;2024-03-25T09:30:00;95813.91;;;8.72;65.13
84878;BME280;75140;47.754;8.840;2024-03-25T09:32:25;95806.66;;;8.53;65.87
84878;BME280;75140;47.754;8.840;2024-03-25T09:34:51;95803.06;;;9.01;64.70
84878;BME280;75140;47.754;8.840;2024-03-25T09:37:17;95804.22;;;10.25;62.00
84878;BME280;75140;47.754;8.840;2024-03-25T09:39:42;95797.66;;;11.88;55.33
84878;BME280;75140;47.754;8.840;2024-03-25T09:42:08;95787.06;;;11.37;55.01
84878;BME280;75140;47.754;8.840;2024-03-25T09:44:34;95781.09;;;12.17;53.85
84878;BME280;75140;47.754;8.840;2024-03-25T09:47:00;95773.81;;;13.34;50.23
84878;BME280;75140;47.754;8.840;2024-03-25T09:49:26;95776.06;;;13.49;49.32
84878;BME280;75140;47.754;8.840;2024-03-25T09:51:53;95767.47;;;14.82;45.68
84878;BME280;75140;47.754;8.840;2024-03-25T09:54:18;95766.19;;;14.08;46.79
84878;BME280;75140;47.754;8.840;2024-03-25T09:56:44;95762.00;;;14.77;45.07
84878;BME280;75140;47.754;8.840;2024-03-25T09:59:10;95756.53;;;13.00;48.89
84878;BME280;75140;47.754;8.840;2024-03-25T10:01:36;95759.00;;;14.50;44.83
84878;BME280;75140;47.754;8.840;2024-03-25T10:04:01;95758.09;;;13.74;47.20
84878;BME280;75140;47.754;8.840;2024-03-25T10:06:27;95752.50;;;12.06;50.63
84878;BME280;75140;47.754;8.840;2024-03-25T10:08:53;95752.72;;;12.54;50.30
84878;BME280;75140;47.754;8.840;2024-03-25T10:11:19;95739.44;;;12.90;49.80
84878;BME280;75140;47.754;8.840;2024-03-25T10:13:45;95718.28;;;13.13;48.96
84878;BME280;75140;47.754;8.840;2024-03-25T10:16:10;95725.72;;;13.70;47.55
84878;BME280;75140;47.754;8.840;2024-03-25T10:18:35;95725.16;;;15.81;42.75
84878;BME280;75140;47.754;8.840;2024-03-25T10:21:01;95716.25;;;14.38;44.14
84878;BME280;75140;47.754;8.840;2024-03-25T10:23:28;95717.16;;;13.50;47.47
84878;BME280;75140;47.754;8.840;2024-03-25T10:25:54;95708.06;;;14.22;46.34
84878;BME280;75140;47.754;8.840;2024-03-25T10:28:20;95694.06;;;14.50;45.68
84878;BME280;75140;47.754;8.840;2024-03-25T10:30:47;95703.47;;;13.76;48.51
84878;BME280;75140;47.754;8.840;2024-03-25T10:33:12;95692.88;;;14.22;47.01
84878;BME280;75140;47.754;8.840;2024-03-25T10:35:39;95688.97;;;14.48;46.53
84878;BME280;75140;47.754;8.840;2024-03-25T10:38:09;95686.16;;;14.78;47.25
84878;BME280;75140;47.754;8.840;2024-03-25T10:40:38;95674.38;;;15.86;43.65
84878;BME280;75140;47.754;8.840;2024-03-25T10:43:09;95674.16;;;15.88;42.61
84878;BME280;75140;47.754;8.840;2024-03-25T10:45:50;95676.69;;;15.38;44.56
84878;BME280;75140;47.754;8.840;2024-03-25T10:48:21;95657.75;;;16.01;42.05
84878;BME280;75140;47.754;8.840;2024-03-25T10:50:51;95651.59;;;16.00;41.40
84878;BME280;75140;47.754;8.840;2024-03-25T10:53:18;95654.16;;;15.34;41.89
84878;BME280;75140;47.754;8.840;2024-03-25T10:55:46;95648.63;;;15.52;42.91
84878;BME280;75140;47.754;8.840;2024-03-25T10:58:15;95641.59;;;15.96;41.89
84878;BME280;75140;47.754;8.840;2024-03-25T11:00:42;95635.06;;;16.41;39.86
84878;BME280;75140;47.754;8.840;2024-03-25T11:03:07;95621.53;;;17.56;36.17
84878;BME280;75140;47.754;8.840;2024-03-25T11:05:34;95615.47;;;16.36;38.81
84878;BME280;75140;47.754;8.840;2024-03-25T11:08:12;95612.72;;;16.14;39.22
84878;BME280;75140;47.754;8.840;2024-03-25T11:10:46;95604.47;;;15.66;38.58
84878;BME280;75140;47.754;8.840;2024-03-25T11:13:17;95602.13;;;15.86;39.73
84878;BME280;75140;47.754;8.840;2024-03-25T11:15:44;95592.13;;;15.98;39.42
84878;BME280;75140;47.754;8.840;2024-03-25T11:18:14;95578.34;;;17.09;36.66
84878;BME280;75140;47.754;8.840;2024-03-25T11:20:40;95574.44;;;16.95;36.41
84878;BME280;75140;47.754;8.840;2024-03-25T11:23:12;95569.66;;;16.54;38.55
84878;BME280;75140;47.754;8.840;2024-03-25T11:25:39;95554.22;;;16.88;36.28
84878;BME280;75140;47.754;8.840;2024-03-25T11:28:06;95549.78;;;17.78;33.90
84878;BME280;75140;47.754;8.840;2024-03-25T11:30:31;95553.56;;;17.24;33.59
84878;BME280;75140;47.754;8.840;2024-03-25T11:33:00;95544.66;;;16.48;35.91
84878;BME280;75140;47.754;8.840;2024-03-25T11:35:26;95534.81;;;17.29;33.58
84878;BME280;75140;47.754;8.840;2024-03-25T11:37:51;95538.03;;;15.63;36.94
84878;BME280;75140;47.754;8.840;2024-03-25T11:40:17;95526.38;;;16.45;35.12
84878;BME280;75140;47.754;8.840;2024-03-25T11:42:44;95521.59;;;15.71;36.55
84878;BME280;75140;47.754;8.840;2024-03-25T11:45:17;95516.72;;;15.51;36.61
84878;BME280;75140;47.754;8.840;2024-03-25T11:47:43;95508.13;;;15.66;34.30
84878;BME280;75140;47.754;8.840;2024-03-25T11:50:13;95499.25;;;15.82;33.31
84878;BME280;75140;47.754;8.840;2024-03-25T11:52:39;95494.31;;;14.80;36.87
84878;BME280;75140;47.754;8.840;2024-03-25T11:55:05;95487.72;;;15.82;36.33
84878;BME280;75140;47.754;8.840;2024-03-25T11:57:30;95477.56;;;16.43;33.61
84878;BME280;75140;47.754;8.840;2024-03-25T11:59:57;95477.84;;;16.90;34.12
84878;BME280;75140;47.754;8.840;2024-03-25T12:02:23;95478.59;;;17.44;32.80
84878;BME280;75140;47.754;8.840;2024-03-25T12:04:49;95468.84;;;15.88;33.88
84878;BME280;75140;47.754;8.840;2024-03-25T12:07:15;95468.72;;;15.78;33.42
84878;BME280;75140;47.754;8.840;2024-03-25T12:09:41;95460.50;;;15.68;35.19
84878;BME280;75140;47.754;8.840;2024-03-25T12:12:25;95455.34;;;16.43;31.60
84878;BME280;75140;47.754;8.840;2024-03-25T12:14:51;95453.41;;;16.38;30.67
84878;BME280;75140;47.754;8.840;2024-03-25T12:17:18;95448.09;;;15.79;32.79
84878;BME280;75140;47.754;8.840;2024-03-25T12:19:44;95435.34;;;15.86;34.01
84878;BME280;75140;47.754;8.840;2024-03-25T12:22:10;95427.72;;;17.22;28.46
84878;BME280;75140;47.754;8.840;2024-03-25T12:24:35;95422.94;;;16.98;28.95
84878;BME280;75140;47.754;8.840;2024-03-25T12:27:01;95422.75;;;16.77;29.56
84878;BME280;75140;47.754;8.840;2024-03-25T12:29:28;95417.38;;;16.46;31.89
84878;BME280;75140;47.754;8.840;2024-03-25T12:31:57;95417.63;;;16.71;31.98
84878;BME280;75140;47.754;8.840;2024-03-25T12:34:22;95415.66;;;15.75;33.70
84878;BME280;75140;47.754;8.840;2024-03-25T12:36:50;95403.72;;;15.28;35.12
84878;BME280;75140;47.754;8.840;2024-03-25T12:39:17;95396.97;;;16.23;33.78
84878;BME280;75140;47.754;8.840;2024-03-25T12:41:44;95390.56;;;16.24;34.25
84878;BME280;75140;47.754;8.840;2024-03-25T12:44:12;95397.06;;;16.55;33.42
84878;BME280;75140;47.754;8.840;2024-03-25T12:46:38;95393.19;;;16.67;33.38
84878;BME280;75140;47.754;8.840;2024-03-25T12:49:07;95390.25;;;15.56;33.95
84878;BME280;75140;47.754;8.840;2024-03-25T12:51:32;95387.91;;;15.43;34.82
84878;BME280;75140;47.754;8.840;2024-03-25T12:53:57;95386.81;;;15.06;35.53
84878;BME280;75140;47.754;8.840;2024-03-25T12:56:24;95375.69;;;15.14;35.40
84878;BME280;75140;47.754;8.840;2024-03-25T12:58:49;95369.88;;;15.93;33.81
84878;BME280;75140;47.754;8.840;2024-03-25T13:01:15;95371.34;;;15.08;35.96
84878;BME280;75140;47.754;8.840;2024-03-25T13:03:40;95369.94;;;15.22;34.59